createdAt,value
2022-08-07T00:02:40.797Z,13.98
2022-08-07T00:04:58.788Z,14.25
2022-08-07T00:07:27.414Z,14.31
2022-08-07T00:10:18.763Z,14.26
2022-08-07T00:13:00.075Z,14.31
2022-08-07T00:15:38.123Z,14.14
2022-08-07T00:18:20.126Z,14.29
2022-08-07T00:20:51.953Z,14.34
2022-08-07T00:23:21.619Z,14.52
2022-08-07T00:26:01.542Z,14.65
2022-08-07T00:28:34.373Z,14.73
2022-08-07T00:31:06.099Z,14.83
2022-08-07T00:33:36.595Z,14.98
2022-08-07T00:36:07.842Z,15.07
2022-08-07T00:38:39.138Z,15.20
2022-08-07T00:41:10.104Z,15.30
2022-08-07T00:44:01.617Z,15.37
2022-08-07T00:46:32.879Z,15.43
2022-08-07T00:49:04.999Z,15.58
2022-08-07T00:51:56.730Z,15.58
2022-08-07T00:54:23.129Z,15.74
2022-08-07T00:56:51.823Z,15.80
2022-08-07T00:59:35.884Z,15.89
2022-08-07T01:02:13.942Z,15.98
2022-08-07T01:04:48.684Z,16.08
2022-08-07T01:07:18.453Z,16.10
2022-08-07T01:10:06.620Z,16.15
2022-08-07T01:12:36.435Z,16.41
2022-08-07T01:15:16.894Z,16.58
2022-08-07T01:17:45.892Z,16.67
2022-08-07T01:20:17.485Z,16.84
2022-08-07T01:23:00.618Z,16.87
2022-08-07T01:25:54.642Z,16.98
2022-08-07T01:28:24.823Z,17.16
2022-08-07T01:30:55.716Z,17.30
2022-08-07T01:33:30.165Z,17.49
2022-08-07T01:36:16.796Z,17.72
2022-08-07T01:38:45.593Z,17.89
2022-08-07T01:41:26.195Z,17.96
2022-08-07T01:43:56.087Z,18.04
2022-08-07T01:46:24.328Z,18.05
2022-08-07T01:48:53.720Z,18.01
2022-08-07T01:52:03.211Z,18.05
2022-08-07T01:54:32.699Z,18.08
2022-08-07T01:57:24.212Z,18.04
2022-08-07T02:00:03.485Z,18.17
2022-08-07T02:03:18.524Z,18.25
2022-08-07T02:05:59.655Z,18.47
2022-08-07T02:08:32.881Z,18.62
2022-08-07T02:11:04.464Z,18.78
2022-08-07T02:14:00.695Z,18.73
2022-08-07T02:16:33.297Z,19.04
2022-08-07T02:20:07.835Z,18.98
2022-08-07T02:21:58.635Z,19.22
2022-08-07T02:24:29.904Z,19.22
2022-08-07T02:27:02.494Z,19.25
2022-08-07T02:29:34.506Z,19.33
2022-08-07T02:32:13.288Z,19.48
2022-08-07T02:34:48.756Z,19.52
2022-08-07T02:37:18.655Z,19.53
2022-08-07T02:40:02.256Z,19.73
2022-08-07T02:42:40.303Z,19.84
2022-08-07T02:45:58.827Z,19.95
2022-08-07T02:48:02.040Z,20.04
2022-08-07T02:50:30.852Z,20.12
2022-08-07T02:53:15.962Z,20.14
2022-08-07T02:56:03.220Z,20.22
2022-08-07T02:58:35.561Z,20.47
2022-08-07T03:01:05.233Z,20.46
2022-08-07T03:03:50.581Z,20.57
2022-08-07T03:06:25.910Z,20.57
2022-08-07T03:09:11.160Z,20.71
2022-08-07T03:12:22.027Z,20.70
2022-08-07T03:15:02.561Z,20.78
2022-08-07T03:17:52.814Z,20.95
2022-08-07T03:20:21.594Z,21.11
2022-08-07T03:22:51.431Z,21.20
2022-08-07T03:25:21.414Z,21.31
2022-08-07T03:28:37.648Z,21.46
2022-08-07T03:31:24.737Z,21.60
2022-08-07T03:34:10.566Z,21.59
2022-08-07T03:36:57.309Z,21.82
2022-08-07T03:39:59.803Z,21.84
2022-08-07T03:42:18.812Z,21.93
2022-08-07T03:44:53.618Z,21.98
2022-08-07T03:47:29.543Z,22.19
2022-08-07T03:50:22.863Z,22.20
2022-08-07T03:52:53.533Z,22.21
2022-08-07T03:55:23.159Z,22.41
2022-08-07T03:59:05.400Z,22.55
2022-08-07T04:00:46.325Z,22.60
2022-08-07T04:03:23.193Z,22.87
2022-08-07T04:05:51.799Z,23.02
2022-08-07T04:08:27.946Z,23.15
2022-08-07T04:12:24.666Z,23.29
2022-08-07T04:14:10.207Z,23.40
2022-08-07T04:16:40.396Z,23.10
2022-08-07T04:19:51.115Z,23.08
2022-08-07T04:23:19.237Z,23.40
2022-08-07T04:25:53.582Z,22.70
2022-08-07T04:28:38.265Z,22.57
2022-08-07T04:31:38.496Z,22.78
2022-08-07T04:34:16.397Z,22.89
2022-08-07T04:36:48.736Z,22.61
2022-08-07T04:39:20.022Z,22.72
2022-08-07T04:41:54.092Z,22.92
2022-08-07T04:44:22.398Z,23.00
2022-08-07T04:47:04.612Z,23.28
2022-08-07T04:50:11.009Z,23.43
2022-08-07T04:53:39.980Z,23.82
2022-08-07T04:58:16.216Z,23.87
2022-08-07T05:00:09.477Z,24.21
2022-08-07T05:02:45.597Z,24.47
2022-08-07T05:05:53.436Z,24.60
2022-08-07T05:08:59.482Z,24.60
2022-08-07T05:12:02.354Z,24.73
2022-08-07T05:15:23.411Z,24.91
2022-08-07T05:18:01.548Z,25.09
2022-08-07T05:20:41.085Z,25.08
2022-08-07T05:23:36.526Z,24.99
2022-08-07T05:26:15.259Z,25.22
2022-08-07T05:28:59.750Z,25.37
2022-08-07T05:31:37.933Z,25.42
2022-08-07T05:34:12.986Z,25.27
2022-08-07T05:36:52.926Z,25.23
2022-08-07T05:40:18.143Z,25.13
2022-08-07T05:42:15.824Z,25.10
2022-08-07T05:45:14.385Z,25.19
2022-08-07T05:48:03.884Z,24.84
2022-08-07T05:50:35.692Z,24.66
2022-08-07T05:53:07.884Z,24.54
2022-08-07T05:56:03.735Z,24.42
2022-08-07T05:58:37.396Z,24.31
2022-08-07T06:01:10.993Z,23.84
2022-08-07T06:03:53.482Z,23.47
2022-08-07T06:06:29.989Z,23.47
2022-08-07T06:09:11.127Z,23.73
2022-08-07T06:11:41.055Z,23.72
2022-08-07T06:14:20.994Z,23.89
2022-08-07T06:17:01.261Z,23.86
2022-08-07T06:19:51.905Z,23.68
2022-08-07T06:22:27.386Z,23.73
2022-08-07T06:25:01.138Z,23.73
2022-08-07T06:28:00.583Z,23.76
2022-08-07T06:30:32.279Z,23.79
2022-08-07T06:33:09.930Z,23.58
2022-08-07T06:36:06.372Z,23.58
2022-08-07T06:38:35.365Z,23.51
2022-08-07T06:41:09.752Z,23.60
2022-08-07T06:43:46.162Z,23.73
2022-08-07T06:46:16.981Z,23.77
2022-08-07T06:48:59.805Z,23.89
2022-08-07T06:51:35.167Z,23.92
2022-08-07T06:55:33.714Z,23.95
2022-08-07T06:57:10.149Z,24.12
2022-08-07T07:00:14.271Z,24.04
2022-08-07T07:02:54.371Z,23.81
2022-08-07T07:06:03.615Z,23.67
2022-08-07T07:08:18.583Z,23.78
2022-08-07T07:11:14.525Z,23.84
2022-08-07T07:14:03.057Z,23.93
2022-08-07T07:16:45.102Z,23.94
2022-08-07T07:22:36.673Z,24.08
2022-08-07T07:26:32.038Z,24.08
2022-08-07T07:28:29.629Z,24.33
2022-08-07T07:31:08.947Z,24.46
2022-08-07T07:33:39.208Z,24.56
2022-08-07T07:36:32.298Z,24.53
2022-08-07T07:39:05.685Z,24.49
2022-08-07T07:41:50.797Z,24.71
2022-08-07T07:44:25.796Z,24.48
2022-08-07T07:47:01.246Z,24.31
2022-08-07T07:50:35.101Z,24.33
2022-08-07T07:52:33.112Z,24.24
2022-08-07T07:55:03.560Z,24.22
2022-08-07T07:57:52.402Z,24.23
2022-08-07T08:00:29.714Z,24.21
2022-08-07T08:03:16.560Z,24.25
2022-08-07T08:06:00.381Z,24.44
2022-08-07T08:08:36.876Z,24.50
2022-08-07T08:11:16.457Z,24.47
2022-08-07T08:13:55.382Z,24.61
2022-08-07T08:18:36.936Z,24.75
2022-08-07T08:20:17.830Z,24.73
2022-08-07T08:22:54.384Z,24.84
2022-08-07T08:25:49.296Z,24.79
2022-08-07T08:28:38.314Z,24.50
2022-08-07T08:31:58.696Z,24.66
2022-08-07T08:34:26.703Z,24.39
2022-08-07T08:36:59.167Z,24.51
2022-08-07T08:39:39.425Z,24.36
2022-08-07T08:42:40.403Z,24.45
2022-08-07T08:45:13.279Z,24.36
2022-08-07T08:47:55.009Z,24.35
2022-08-07T08:50:45.730Z,24.15
2022-08-07T08:53:31.125Z,23.94
2022-08-07T08:56:05.715Z,23.61
2022-08-07T08:59:13.715Z,23.92
2022-08-07T09:01:51.166Z,23.92
2022-08-07T09:04:44.208Z,23.92
2022-08-07T09:07:58.228Z,23.91
2022-08-07T09:10:34.905Z,23.81
2022-08-07T09:13:07.707Z,23.89
2022-08-07T09:16:22.377Z,23.75
2022-08-07T09:19:07.293Z,23.67
2022-08-07T09:24:28.113Z,23.66
2022-08-07T09:25:17.269Z,23.57
2022-08-07T09:30:01.672Z,23.72
2022-08-07T09:31:49.533Z,23.76
2022-08-07T09:34:38.126Z,23.75
2022-08-07T09:37:47.812Z,23.85
2022-08-07T09:40:55.027Z,24.03
2022-08-07T09:44:03.211Z,23.91
2022-08-07T09:47:52.329Z,23.94
2022-08-07T09:50:01.161Z,23.99
2022-08-07T09:52:51.899Z,23.93
2022-08-07T09:56:03.341Z,23.87
2022-08-07T09:59:14.592Z,23.71
2022-08-07T10:01:58.495Z,23.79
2022-08-07T10:04:59.515Z,23.60
2022-08-07T10:07:58.914Z,23.74
2022-08-07T10:11:16.666Z,23.77
2022-08-07T10:14:01.959Z,23.88
2022-08-07T10:16:50.854Z,23.95
2022-08-07T10:19:49.138Z,23.95
2022-08-07T10:22:56.083Z,23.94
2022-08-07T10:25:52.909Z,23.94
2022-08-07T10:28:27.275Z,23.92
2022-08-07T10:34:06.199Z,23.52
2022-08-07T10:37:15.394Z,23.68
2022-08-07T10:40:09.158Z,23.35
2022-08-07T10:42:39.371Z,23.63
2022-08-07T10:45:19.438Z,23.68
2022-08-07T10:48:35.471Z,23.44
2022-08-07T10:51:39.740Z,23.60
2022-08-07T10:54:22.807Z,23.32
2022-08-07T10:57:15.593Z,23.44
2022-08-07T11:00:36.975Z,23.40
2022-08-07T11:03:13.519Z,23.15
2022-08-07T11:06:22.130Z,22.98
2022-08-07T11:09:00.958Z,23.26
2022-08-07T11:11:59.215Z,23.21
2022-08-07T11:14:59.942Z,23.25
2022-08-07T11:17:45.756Z,23.19
2022-08-07T11:20:43.178Z,23.25
2022-08-07T11:23:48.288Z,23.34
2022-08-07T11:26:28.972Z,23.20
2022-08-07T11:29:42.082Z,23.35
2022-08-07T11:32:25.238Z,23.30
2022-08-07T11:35:13.283Z,23.05
2022-08-07T11:38:12.524Z,23.16
2022-08-07T11:41:02.219Z,23.14
2022-08-07T11:44:11.104Z,23.12
2022-08-07T11:47:10.562Z,23.11
2022-08-07T11:50:31.095Z,23.16
2022-08-07T11:53:36.958Z,23.13
2022-08-07T11:56:26.718Z,23.10
2022-08-07T12:00:08.127Z,22.93
2022-08-07T12:02:34.473Z,22.78
2022-08-07T12:05:28.269Z,22.68
2022-08-07T12:08:31.403Z,22.54
2022-08-07T12:11:20.054Z,22.49
2022-08-07T12:13:57.727Z,22.41
2022-08-07T12:16:36.306Z,22.27
2022-08-07T12:19:21.617Z,22.22
2022-08-07T12:22:38.055Z,22.13
2022-08-07T12:26:00.343Z,22.04
2022-08-07T12:28:09.414Z,21.99
2022-08-07T12:30:46.912Z,21.97
2022-08-07T12:33:30.787Z,21.85
2022-08-07T12:36:13.620Z,21.88
2022-08-07T12:38:47.414Z,21.70
2022-08-07T12:41:46.251Z,21.69
2022-08-07T12:44:22.106Z,21.63
2022-08-07T12:47:21.416Z,21.61
2022-08-07T12:50:38.954Z,21.58
2022-08-07T12:53:17.371Z,21.31
2022-08-07T12:56:18.558Z,21.44
2022-08-07T12:58:57.240Z,21.40
2022-08-07T13:01:32.777Z,21.36
2022-08-07T13:04:34.469Z,21.27
2022-08-07T13:07:17.934Z,21.31
2022-08-07T13:10:39.515Z,21.26
2022-08-07T13:13:47.994Z,21.22
2022-08-07T13:16:38.609Z,21.15
2022-08-07T13:19:34.876Z,21.08
2022-08-07T13:22:27.501Z,21.02
2022-08-07T13:25:00.114Z,21.05
2022-08-07T13:28:10.882Z,21.01
2022-08-07T13:30:53.299Z,20.97
2022-08-07T13:34:33.314Z,20.94
2022-08-07T13:36:39.689Z,20.87
2022-08-07T13:39:28.625Z,20.79
2022-08-07T13:42:11.014Z,20.74
2022-08-07T13:44:43.077Z,20.66
2022-08-07T13:48:06.034Z,20.62
2022-08-07T13:50:35.519Z,20.36
2022-08-07T13:53:23.597Z,20.46
2022-08-07T13:55:54.637Z,20.35
2022-08-07T13:58:56.163Z,20.33
2022-08-07T14:01:29.747Z,20.26
2022-08-07T14:04:12.012Z,20.18
2022-08-07T14:06:47.622Z,20.12
2022-08-07T14:10:02.136Z,20.04
2022-08-07T14:12:30.342Z,19.94
2022-08-07T14:15:08.426Z,19.94
2022-08-07T14:18:24.081Z,19.87
2022-08-07T14:20:40.260Z,19.78
2022-08-07T14:23:59.098Z,19.61
2022-08-07T14:26:28.132Z,19.62
2022-08-07T14:29:05.921Z,19.33
2022-08-07T14:31:57.700Z,19.48
2022-08-07T14:35:04.239Z,19.38
2022-08-07T14:37:39.317Z,19.27
2022-08-07T14:43:57.180Z,18.83
2022-08-07T14:46:32.452Z,19.12
2022-08-07T14:49:17.480Z,19.07
2022-08-07T14:52:03.946Z,18.91
2022-08-07T14:54:42.940Z,18.83
2022-08-07T14:57:24.874Z,18.66
2022-08-07T15:02:56.845Z,18.56
2022-08-07T15:05:27.297Z,18.50
2022-08-07T15:08:00.397Z,18.48
2022-08-07T15:10:30.546Z,18.35
2022-08-07T15:13:06.081Z,18.39
2022-08-07T15:15:43.598Z,18.10
2022-08-07T15:18:35.870Z,18.23
2022-08-07T15:21:43.895Z,18.23
2022-08-07T15:25:13.967Z,18.22
2022-08-07T15:27:12.808Z,18.14
2022-08-07T15:30:04.879Z,18.05
2022-08-07T15:32:50.875Z,17.96
2022-08-07T15:36:00.575Z,17.98
2022-08-07T15:38:51.772Z,17.71
2022-08-07T15:42:42.296Z,17.89
2022-08-07T15:44:18.225Z,17.72
2022-08-07T15:46:56.554Z,17.75
2022-08-07T15:50:04.377Z,17.71
2022-08-07T15:52:29.641Z,17.58
2022-08-07T15:55:08.914Z,17.61
2022-08-07T15:57:48.444Z,17.16
2022-08-07T16:00:31.449Z,17.52
2022-08-07T16:03:46.327Z,17.55
2022-08-07T16:06:11.528Z,17.46
2022-08-07T16:08:45.473Z,17.16
2022-08-07T16:11:51.892Z,17.45
2022-08-07T16:14:54.558Z,17.39
2022-08-07T16:18:04.028Z,17.32
2022-08-07T16:20:55.156Z,17.15
2022-08-07T16:24:33.661Z,17.22
2022-08-07T16:27:18.967Z,17.18
2022-08-07T16:30:30.511Z,17.14
2022-08-07T16:34:03.256Z,17.06
2022-08-07T16:37:02.410Z,17.03
2022-08-07T16:39:56.017Z,16.91
2022-08-07T16:42:32.490Z,16.93
2022-08-07T16:46:47.284Z,16.88
2022-08-07T16:48:30.049Z,16.76
2022-08-07T16:54:22.497Z,16.74
2022-08-07T16:58:02.553Z,16.52
2022-08-07T17:00:29.867Z,16.47
2022-08-07T17:03:17.862Z,16.38
2022-08-07T17:06:28.212Z,16.41
2022-08-07T17:09:54.818Z,16.39
2022-08-07T17:12:52.889Z,16.38
2022-08-07T17:15:43.642Z,16.27
2022-08-07T17:18:30.286Z,16.36
2022-08-07T17:20:58.906Z,16.22
2022-08-07T17:23:32.216Z,16.34
2022-08-07T17:26:35.849Z,16.32
2022-08-07T17:30:15.026Z,16.22
2022-08-07T17:32:30.771Z,16.18
2022-08-07T17:35:50.342Z,16.25
2022-08-07T17:38:33.637Z,16.20
2022-08-07T17:42:04.863Z,16.19
2022-08-07T17:44:46.931Z,16.16
2022-08-07T17:47:41.783Z,16.16
2022-08-07T17:50:42.547Z,16.15
2022-08-07T17:54:00.673Z,16.14
2022-08-07T17:56:49.435Z,16.14
2022-08-07T17:59:43.331Z,15.99
2022-08-07T18:02:33.519Z,16.09
2022-08-07T18:05:20.677Z,16.08
2022-08-07T18:09:01.426Z,16.10
2022-08-07T18:12:07.518Z,16.03
2022-08-07T18:15:01.803Z,16.01
2022-08-07T18:18:45.694Z,15.97
2022-08-07T18:21:37.337Z,15.92
2022-08-07T18:24:40.389Z,15.85
2022-08-07T18:27:46.268Z,15.80
2022-08-07T18:30:32.401Z,15.75
2022-08-07T18:33:32.060Z,15.71
2022-08-07T18:36:33.136Z,15.69
2022-08-07T18:40:06.631Z,15.66
2022-08-07T18:42:28.748Z,15.46
2022-08-07T18:45:39.881Z,15.31
2022-08-07T18:50:05.729Z,15.38
2022-08-07T18:52:34.806Z,15.19
2022-08-07T18:54:50.832Z,15.38
2022-08-07T18:57:36.965Z,15.32
2022-08-07T19:00:33.046Z,15.29
2022-08-07T19:03:12.489Z,15.25
2022-08-07T19:06:16.394Z,15.26
2022-08-07T19:08:56.769Z,15.24
2022-08-07T19:12:06.357Z,15.23
2022-08-07T19:14:51.318Z,15.07
2022-08-07T19:18:01.190Z,15.09
2022-08-07T19:21:09.603Z,14.85
2022-08-07T19:23:57.963Z,14.85
2022-08-07T19:26:53.484Z,14.90
2022-08-07T19:31:03.675Z,14.91
2022-08-07T19:32:28.912Z,14.90
2022-08-07T19:35:03.904Z,14.78
2022-08-07T19:37:56.221Z,14.83
2022-08-07T19:40:30.898Z,14.76
2022-08-07T19:43:02.328Z,14.76
2022-08-07T19:46:05.795Z,14.78
2022-08-07T19:48:42.646Z,14.78
2022-08-07T19:51:19.359Z,14.70
2022-08-07T19:54:32.105Z,14.74
2022-08-07T19:57:51.866Z,14.83
2022-08-07T19:59:43.787Z,14.89
2022-08-07T20:02:29.464Z,14.88
2022-08-07T20:05:01.582Z,14.98
2022-08-07T20:07:46.266Z,14.80
2022-08-07T20:10:37.205Z,15.07
2022-08-07T20:13:23.539Z,15.11
2022-08-07T20:15:58.086Z,15.10
2022-08-07T20:18:32.697Z,15.02
2022-08-07T20:21:14.807Z,15.27
2022-08-07T20:24:04.986Z,15.34
2022-08-07T20:26:45.134Z,15.30
2022-08-07T20:29:49.347Z,15.36
2022-08-07T20:32:25.197Z,15.32
2022-08-07T20:35:00.172Z,15.36
2022-08-07T20:37:46.722Z,15.31
2022-08-07T20:40:33.480Z,15.38
2022-08-07T20:43:14.679Z,15.28
2022-08-07T20:46:26.875Z,15.20
2022-08-07T20:48:58.144Z,14.98
2022-08-07T20:51:40.271Z,14.97
2022-08-07T20:54:15.172Z,14.99
2022-08-07T20:57:05.230Z,14.97
2022-08-07T21:00:08.219Z,14.98
2022-08-07T21:02:54.508Z,14.95
2022-08-07T21:05:56.234Z,14.93
2022-08-07T21:08:44.172Z,14.89
2022-08-07T21:11:22.027Z,14.88
2022-08-07T21:14:31.703Z,14.84
2022-08-07T21:18:00.412Z,14.81
2022-08-07T21:20:04.787Z,14.78
2022-08-07T21:22:51.406Z,14.89
2022-08-07T21:25:39.044Z,14.74
2022-08-07T21:28:16.758Z,14.86
2022-08-07T21:31:17.705Z,14.86
2022-08-07T21:34:16.390Z,14.87
2022-08-07T21:37:00.439Z,14.89
2022-08-07T21:39:45.271Z,14.89
2022-08-07T21:42:55.534Z,14.90
2022-08-07T21:46:10.108Z,14.87
2022-08-07T21:48:57.490Z,14.84
2022-08-07T21:51:32.058Z,14.84
2022-08-07T21:54:39.103Z,14.82
2022-08-07T21:58:30.575Z,14.74
2022-08-07T22:01:13.927Z,14.67
2022-08-07T22:04:13.323Z,14.28
2022-08-07T22:07:14.043Z,14.77
2022-08-07T22:09:53.838Z,14.47
2022-08-07T22:12:24.526Z,14.75
2022-08-07T22:15:00.632Z,14.71
2022-08-07T22:17:37.788Z,14.46
2022-08-07T22:20:22.996Z,14.68
2022-08-07T22:23:01.780Z,14.70
2022-08-07T22:25:42.604Z,14.71
2022-08-07T22:28:53.129Z,14.78
2022-08-07T22:32:00.390Z,14.85
2022-08-07T22:34:54.627Z,14.76
2022-08-07T22:38:04.284Z,14.92
2022-08-07T22:40:34.719Z,14.91
2022-08-07T22:43:16.609Z,14.80
2022-08-07T22:46:21.583Z,14.90
2022-08-07T22:49:20.693Z,14.71
2022-08-07T22:52:37.499Z,14.90
2022-08-07T22:55:22.733Z,14.90
2022-08-07T22:58:27.718Z,14.90
2022-08-07T23:01:42.116Z,14.77
2022-08-07T23:04:56.724Z,14.93
2022-08-07T23:08:07.119Z,14.89
2022-08-07T23:11:35.208Z,14.73
2022-08-07T23:14:53.391Z,14.73
2022-08-07T23:17:57.478Z,14.68
2022-08-07T23:20:52.675Z,14.73
2022-08-07T23:24:06.888Z,14.75
2022-08-07T23:27:07.692Z,14.83
2022-08-07T23:30:37.395Z,14.86
2022-08-07T23:34:34.161Z,14.84
2022-08-07T23:36:28.829Z,14.95
2022-08-07T23:39:13.355Z,14.98
2022-08-07T23:42:04.236Z,14.90
2022-08-07T23:45:33.225Z,15.01
2022-08-07T23:48:29.068Z,15.01
2022-08-07T23:53:00.046Z,15.00
2022-08-07T23:54:46.583Z,15.01
2022-08-07T23:57:50.284Z,15.03
